KMIB

Minot AFB Airport

Minot, North Dakota, USA
METAR KMIB 222056Z AUTO 31013KT 10SM CLR 12/M09 A3023 RMK AO2 SLP254 T01161089 55004 $
Observed Flight Rules
Oct-22 @ 20:56 UTC (38 minutes ago) Visual Flight Rules
Wind Visibility Clouds
310° at 13 knots 10 miles
  • Clear skies
Temperatures Readings
Current 12°C / 54°F
Dewpoint -9°C / 16°F
Humidity 22%
Altimeter 30.23" Hg
Pressure 1025.4 hPa
Elevation 508
METAR KMIB 222056Z AUTO 31013KT 10SM CLR 12/M09 A3023 RMK AO2 SLP254 T01161089 55004 $
Observed Flight Rules
Oct-22 @ 20:56 UTC
(38 minutes ago)
VFR
Wind Visibility
310° at 13 knots 10 miles
Clouds
  • Clear skies
Temperature Dewpoint
12°C / 54°F -9°C / 16°F
Humidity Altimeter Pressure
22% 30.23" Hg 1025.4 hPa